sensor_id;sensor_type;location;lat;lon;timestamp;P1;durP1;ratioP1;P2;durP2;ratioP2
5959;SDS011;3006;50.956;7.002;2024-01-16T00:00:01;9.27;;;6.23;;
5959;SDS011;3006;50.956;7.002;2024-01-16T00:02:31;9.17;;;6.63;;
5959;SDS011;3006;50.956;7.002;2024-01-16T00:04:59;14.87;;;6.80;;
5959;SDS011;3006;50.956;7.002;2024-01-16T00:07:27;5.93;;;4.93;;
5959;SDS011;3006;50.956;7.002;2024-01-16T00:09:55;12.00;;;6.37;;
5959;SDS011;3006;50.956;7.002;2024-01-16T00:12:24;17.60;;;6.87;;
5959;SDS011;3006;50.956;7.002;2024-01-16T00:14:52;7.87;;;6.13;;
5959;SDS011;3006;50.956;7.002;2024-01-16T00:17:20;8.10;;;6.73;;
5959;SDS011;3006;50.956;7.002;2024-01-16T00:19:49;10.07;;;6.30;;
5959;SDS011;3006;50.956;7.002;2024-01-16T00:22:18;10.57;;;6.00;;
5959;SDS011;3006;50.956;7.002;2024-01-16T00:24:46;9.40;;;6.30;;
5959;SDS011;3006;50.956;7.002;2024-01-16T00:27:14;12.53;;;7.43;;
5959;SDS011;3006;50.956;7.002;2024-01-16T00:29:42;10.43;;;6.70;;
5959;SDS011;3006;50.956;7.002;2024-01-16T00:32:11;14.20;;;6.97;;
5959;SDS011;3006;50.956;7.002;2024-01-16T00:34:42;7.93;;;5.90;;
5959;SDS011;3006;50.956;7.002;2024-01-16T00:37:12;8.70;;;6.77;;
5959;SDS011;3006;50.956;7.002;2024-01-16T00:39:40;11.13;;;6.23;;
5959;SDS011;3006;50.956;7.002;2024-01-16T00:42:08;10.37;;;6.83;;
5959;SDS011;3006;50.956;7.002;2024-01-16T00:44:37;10.63;;;6.93;;
5959;SDS011;3006;50.956;7.002;2024-01-16T00:47:05;11.43;;;6.43;;
5959;SDS011;3006;50.956;7.002;2024-01-16T00:49:35;14.70;;;9.33;;
5959;SDS011;3006;50.956;7.002;2024-01-16T00:52:04;9.47;;;6.57;;
5959;SDS011;3006;50.956;7.002;2024-01-16T00:54:34;9.83;;;6.80;;
5959;SDS011;3006;50.956;7.002;2024-01-16T00:57:02;9.73;;;6.67;;
5959;SDS011;3006;50.956;7.002;2024-01-16T00:59:31;11.00;;;6.70;;
5959;SDS011;3006;50.956;7.002;2024-01-16T01:01:59;10.67;;;6.67;;
5959;SDS011;3006;50.956;7.002;2024-01-16T01:04:28;11.90;;;6.57;;
5959;SDS011;3006;50.956;7.002;2024-01-16T01:06:56;12.17;;;7.17;;
5959;SDS011;3006;50.956;7.002;2024-01-16T01:09:24;11.67;;;6.80;;
5959;SDS011;3006;50.956;7.002;2024-01-16T01:11:54;12.63;;;7.37;;
5959;SDS011;3006;50.956;7.002;2024-01-16T01:14:22;9.53;;;6.53;;
5959;SDS011;3006;50.956;7.002;2024-01-16T01:16:52;7.13;;;6.00;;
5959;SDS011;3006;50.956;7.002;2024-01-16T01:19:20;6.67;;;5.97;;
5959;SDS011;3006;50.956;7.002;2024-01-16T01:21:49;8.30;;;5.97;;
5959;SDS011;3006;50.956;7.002;2024-01-16T01:24:17;9.80;;;5.77;;
5959;SDS011;3006;50.956;7.002;2024-01-16T01:26:45;11.50;;;6.33;;
5959;SDS011;3006;50.956;7.002;2024-01-16T01:29:15;11.93;;;6.90;;
5959;SDS011;3006;50.956;7.002;2024-01-16T01:31:45;16.67;;;6.37;;
5959;SDS011;3006;50.956;7.002;2024-01-16T01:34:14;18.43;;;6.20;;
5959;SDS011;3006;50.956;7.002;2024-01-16T01:36:42;6.77;;;5.73;;
5959;SDS011;3006;50.956;7.002;2024-01-16T01:39:11;8.23;;;5.60;;
5959;SDS011;3006;50.956;7.002;2024-01-16T01:41:39;13.07;;;6.30;;
5959;SDS011;3006;50.956;7.002;2024-01-16T01:44:07;8.87;;;5.97;;
5959;SDS011;3006;50.956;7.002;2024-01-16T01:46:43;12.63;;;6.30;;
5959;SDS011;3006;50.956;7.002;2024-01-16T01:49:13;7.50;;;5.23;;
5959;SDS011;3006;50.956;7.002;2024-01-16T01:51:43;7.87;;;5.17;;
5959;SDS011;3006;50.956;7.002;2024-01-16T01:54:12;9.43;;;4.93;;
5959;SDS011;3006;50.956;7.002;2024-01-16T01:56:42;10.93;;;5.80;;
5959;SDS011;3006;50.956;7.002;2024-01-16T01:59:11;6.47;;;4.77;;
5959;SDS011;3006;50.956;7.002;2024-01-16T02:01:41;8.83;;;5.00;;
5959;SDS011;3006;50.956;7.002;2024-01-16T02:04:12;9.63;;;5.77;;
5959;SDS011;3006;50.956;7.002;2024-01-16T02:06:42;9.17;;;5.90;;
5959;SDS011;3006;50.956;7.002;2024-01-16T02:09:11;7.67;;;6.10;;
5959;SDS011;3006;50.956;7.002;2024-01-16T02:11:40;7.63;;;5.60;;
5959;SDS011;3006;50.956;7.002;2024-01-16T02:14:08;10.27;;;5.57;;
5959;SDS011;3006;50.956;7.002;2024-01-16T02:16:37;6.80;;;5.80;;
5959;SDS011;3006;50.956;7.002;2024-01-16T02:19:08;12.27;;;5.70;;
5959;SDS011;3006;50.956;7.002;2024-01-16T02:21:37;13.07;;;6.77;;
5959;SDS011;3006;50.956;7.002;2024-01-16T02:24:09;13.33;;;6.50;;
5959;SDS011;3006;50.956;7.002;2024-01-16T02:26:38;10.07;;;6.60;;
5959;SDS011;3006;50.956;7.002;2024-01-16T02:29:06;13.57;;;6.57;;
5959;SDS011;3006;50.956;7.002;2024-01-16T02:31:35;14.07;;;7.33;;
5959;SDS011;3006;50.956;7.002;2024-01-16T02:34:03;12.70;;;6.43;;
5959;SDS011;3006;50.956;7.002;2024-01-16T02:36:32;14.00;;;6.10;;
5959;SDS011;3006;50.956;7.002;2024-01-16T02:39:00;10.30;;;6.50;;
5959;SDS011;3006;50.956;7.002;2024-01-16T02:41:30;11.90;;;6.80;;
5959;SDS011;3006;50.956;7.002;2024-01-16T02:43:58;12.10;;;7.20;;
5959;SDS011;3006;50.956;7.002;2024-01-16T02:46:26;8.60;;;6.90;;
5959;SDS011;3006;50.956;7.002;2024-01-16T02:48:55;10.40;;;6.00;;
5959;SDS011;3006;50.956;7.002;2024-01-16T02:51:23;8.33;;;6.30;;
5959;SDS011;3006;50.956;7.002;2024-01-16T02:53:51;11.47;;;6.80;;
5959;SDS011;3006;50.956;7.002;2024-01-16T02:56:19;10.13;;;6.40;;
5959;SDS011;3006;50.956;7.002;2024-01-16T02:58:49;8.50;;;5.50;;
5959;SDS011;3006;50.956;7.002;2024-01-16T03:01:17;12.93;;;6.60;;
5959;SDS011;3006;50.956;7.002;2024-01-16T03:03:45;17.27;;;6.73;;
5959;SDS011;3006;50.956;7.002;2024-01-16T03:06:21;11.97;;;6.20;;
5959;SDS011;3006;50.956;7.002;2024-01-16T03:08:50;14.50;;;6.50;;
5959;SDS011;3006;50.956;7.002;2024-01-16T03:11:18;11.90;;;6.33;;
5959;SDS011;3006;50.956;7.002;2024-01-16T03:13:46;11.30;;;5.60;;
5959;SDS011;3006;50.956;7.002;2024-01-16T03:16:19;8.63;;;6.10;;
5959;SDS011;3006;50.956;7.002;2024-01-16T03:18:47;9.63;;;6.57;;
5959;SDS011;3006;50.956;7.002;2024-01-16T03:21:15;8.97;;;5.80;;
5959;SDS011;3006;50.956;7.002;2024-01-16T03:23:44;11.73;;;6.90;;
5959;SDS011;3006;50.956;7.002;2024-01-16T03:26:12;11.20;;;5.93;;
5959;SDS011;3006;50.956;7.002;2024-01-16T03:28:41;13.37;;;5.80;;
5959;SDS011;3006;50.956;7.002;2024-01-16T03:31:11;11.60;;;6.60;;
5959;SDS011;3006;50.956;7.002;2024-01-16T03:33:40;10.40;;;6.00;;
5959;SDS011;3006;50.956;7.002;2024-01-16T03:36:10;12.33;;;5.80;;
5959;SDS011;3006;50.956;7.002;2024-01-16T03:38:40;12.30;;;5.90;;
5959;SDS011;3006;50.956;7.002;2024-01-16T03:41:10;7.00;;;5.80;;
5959;SDS011;3006;50.956;7.002;2024-01-16T03:43:39;7.40;;;6.00;;
5959;SDS011;3006;50.956;7.002;2024-01-16T03:46:09;14.40;;;6.93;;
5959;SDS011;3006;50.956;7.002;2024-01-16T03:48:39;9.93;;;6.63;;
5959;SDS011;3006;50.956;7.002;2024-01-16T03:51:08;9.10;;;6.10;;
5959;SDS011;3006;50.956;7.002;2024-01-16T03:53:37;9.47;;;6.40;;
5959;SDS011;3006;50.956;7.002;2024-01-16T03:56:05;8.13;;;6.00;;
5959;SDS011;3006;50.956;7.002;2024-01-16T03:58:34;10.03;;;6.00;;
5959;SDS011;3006;50.956;7.002;2024-01-16T04:01:02;11.70;;;6.07;;
5959;SDS011;3006;50.956;7.002;2024-01-16T04:03:32;8.53;;;6.13;;
5959;SDS011;3006;50.956;7.002;2024-01-16T04:06:01;10.30;;;5.90;;
5959;SDS011;3006;50.956;7.002;2024-01-16T04:08:29;16.30;;;6.47;;
5959;SDS011;3006;50.956;7.002;2024-01-16T04:10:58;10.97;;;6.37;;
5959;SDS011;3006;50.956;7.002;2024-01-16T04:13:26;13.03;;;6.30;;
5959;SDS011;3006;50.956;7.002;2024-01-16T04:15:54;13.80;;;7.57;;
5959;SDS011;3006;50.956;7.002;2024-01-16T04:18:22;12.57;;;6.70;;
5959;SDS011;3006;50.956;7.002;2024-01-16T04:20:52;8.87;;;7.13;;
5959;SDS011;3006;50.956;7.002;2024-01-16T04:23:20;12.83;;;7.13;;
5959;SDS011;3006;50.956;7.002;2024-01-16T04:25:49;14.37;;;6.90;;
5959;SDS011;3006;50.956;7.002;2024-01-16T04:28:17;16.93;;;8.00;;
5959;SDS011;3006;50.956;7.002;2024-01-16T04:30:45;11.93;;;7.07;;
5959;SDS011;3006;50.956;7.002;2024-01-16T04:33:13;14.93;;;7.43;;
5959;SDS011;3006;50.956;7.002;2024-01-16T04:35:42;12.03;;;7.10;;
5959;SDS011;3006;50.956;7.002;2024-01-16T04:38:12;16.70;;;7.70;;
5959;SDS011;3006;50.956;7.002;2024-01-16T04:40:40;9.67;;;6.80;;
5959;SDS011;3006;50.956;7.002;2024-01-16T04:43:08;11.67;;;7.23;;
5959;SDS011;3006;50.956;7.002;2024-01-16T04:45:36;17.53;;;7.47;;
5959;SDS011;3006;50.956;7.002;2024-01-16T04:48:04;12.40;;;6.93;;
5959;SDS011;3006;50.956;7.002;2024-01-16T04:50:33;11.70;;;6.87;;
5959;SDS011;3006;50.956;7.002;2024-01-16T04:53:01;11.30;;;7.03;;
5959;SDS011;3006;50.956;7.002;2024-01-16T04:55:31;14.90;;;6.87;;
5959;SDS011;3006;50.956;7.002;2024-01-16T04:57:59;10.93;;;6.70;;
5959;SDS011;3006;50.956;7.002;2024-01-16T05:00:27;12.33;;;6.50;;
5959;SDS011;3006;50.956;7.002;2024-01-16T05:02:56;9.73;;;6.10;;
5959;SDS011;3006;50.956;7.002;2024-01-16T05:05:24;12.67;;;6.20;;
5959;SDS011;3006;50.956;7.002;2024-01-16T05:07:55;13.80;;;5.23;;
5959;SDS011;3006;50.956;7.002;2024-01-16T05:10:23;11.67;;;6.13;;
5959;SDS011;3006;50.956;7.002;2024-01-16T05:12:53;12.03;;;5.13;;
5959;SDS011;3006;50.956;7.002;2024-01-16T05:15:21;19.60;;;5.73;;
5959;SDS011;3006;50.956;7.002;2024-01-16T05:17:49;12.50;;;5.40;;
5959;SDS011;3006;50.956;7.002;2024-01-16T05:20:18;10.03;;;5.97;;
5959;SDS011;3006;50.956;7.002;2024-01-16T05:22:46;10.80;;;5.47;;
5959;SDS011;3006;50.956;7.002;2024-01-16T05:25:14;11.20;;;4.90;;
5959;SDS011;3006;50.956;7.002;2024-01-16T05:27:43;13.17;;;5.20;;
5959;SDS011;3006;50.956;7.002;2024-01-16T05:30:13;12.07;;;5.23;;
5959;SDS011;3006;50.956;7.002;2024-01-16T05:32:41;15.60;;;6.30;;
5959;SDS011;3006;50.956;7.002;2024-01-16T05:35:09;12.10;;;5.20;;
5959;SDS011;3006;50.956;7.002;2024-01-16T05:37:38;10.20;;;5.43;;
5959;SDS011;3006;50.956;7.002;2024-01-16T05:40:06;9.90;;;4.53;;
5959;SDS011;3006;50.956;7.002;2024-01-16T05:42:35;12.53;;;5.60;;
5959;SDS011;3006;50.956;7.002;2024-01-16T05:45:04;8.40;;;4.83;;
5959;SDS011;3006;50.956;7.002;2024-01-16T05:47:34;9.00;;;5.30;;
5959;SDS011;3006;50.956;7.002;2024-01-16T05:50:03;13.73;;;5.40;;
5959;SDS011;3006;50.956;7.002;2024-01-16T05:52:32;20.93;;;5.43;;
5959;SDS011;3006;50.956;7.002;2024-01-16T05:55:00;9.37;;;5.50;;
5959;SDS011;3006;50.956;7.002;2024-01-16T05:57:29;7.60;;;4.87;;
5959;SDS011;3006;50.956;7.002;2024-01-16T06:00:00;13.37;;;5.60;;
5959;SDS011;3006;50.956;7.002;2024-01-16T06:02:30;13.90;;;5.73;;
5959;SDS011;3006;50.956;7.002;2024-01-16T06:05:02;10.20;;;5.40;;
5959;SDS011;3006;50.956;7.002;2024-01-16T06:07:30;9.23;;;5.57;;
5959;SDS011;3006;50.956;7.002;2024-01-16T06:09:58;14.43;;;5.60;;
5959;SDS011;3006;50.956;7.002;2024-01-16T06:12:27;10.57;;;5.23;;
5959;SDS011;3006;50.956;7.002;2024-01-16T06:14:55;10.80;;;5.80;;
5959;SDS011;3006;50.956;7.002;2024-01-16T06:17:24;13.40;;;5.80;;
5959;SDS011;3006;50.956;7.002;2024-01-16T06:19:52;15.53;;;5.83;;
5959;SDS011;3006;50.956;7.002;2024-01-16T06:22:22;9.40;;;5.40;;
5959;SDS011;3006;50.956;7.002;2024-01-16T06:24:50;11.53;;;5.17;;
5959;SDS011;3006;50.956;7.002;2024-01-16T06:27:18;14.20;;;5.80;;
5959;SDS011;3006;50.956;7.002;2024-01-16T06:29:46;11.70;;;5.50;;
5959;SDS011;3006;50.956;7.002;2024-01-16T06:32:15;13.77;;;5.07;;
5959;SDS011;3006;50.956;7.002;2024-01-16T06:34:43;13.33;;;4.90;;
5959;SDS011;3006;50.956;7.002;2024-01-16T06:37:11;13.13;;;4.90;;
5959;SDS011;3006;50.956;7.002;2024-01-16T06:39:40;6.87;;;4.40;;
5959;SDS011;3006;50.956;7.002;2024-01-16T06:42:08;9.90;;;5.50;;
5959;SDS011;3006;50.956;7.002;2024-01-16T06:44:37;9.20;;;4.60;;
5959;SDS011;3006;50.956;7.002;2024-01-16T06:47:05;6.90;;;4.80;;
5959;SDS011;3006;50.956;7.002;2024-01-16T06:49:33;12.27;;;5.20;;
5959;SDS011;3006;50.956;7.002;2024-01-16T06:52:02;10.30;;;5.13;;
5959;SDS011;3006;50.956;7.002;2024-01-16T06:54:30;12.73;;;4.60;;
5959;SDS011;3006;50.956;7.002;2024-01-16T06:57:00;10.10;;;3.73;;
5959;SDS011;3006;50.956;7.002;2024-01-16T06:59:28;9.67;;;4.70;;
5959;SDS011;3006;50.956;7.002;2024-01-16T07:01:56;12.83;;;4.20;;
5959;SDS011;3006;50.956;7.002;2024-01-16T07:04:24;7.70;;;4.40;;
5959;SDS011;3006;50.956;7.002;2024-01-16T07:06:53;8.63;;;4.40;;
5959;SDS011;3006;50.956;7.002;2024-01-16T07:09:21;6.33;;;4.60;;
5959;SDS011;3006;50.956;7.002;2024-01-16T07:11:49;8.93;;;4.80;;
5959;SDS011;3006;50.956;7.002;2024-01-16T07:14:19;11.37;;;4.50;;
5959;SDS011;3006;50.956;7.002;2024-01-16T07:16:47;10.33;;;4.10;;
5959;SDS011;3006;50.956;7.002;2024-01-16T07:19:16;11.40;;;4.80;;
5959;SDS011;3006;50.956;7.002;2024-01-16T07:21:44;7.93;;;3.83;;
5959;SDS011;3006;50.956;7.002;2024-01-16T07:24:12;14.47;;;4.10;;
5959;SDS011;3006;50.956;7.002;2024-01-16T07:26:41;8.50;;;4.00;;
5959;SDS011;3006;50.956;7.002;2024-01-16T07:29:09;9.60;;;3.97;;
5959;SDS011;3006;50.956;7.002;2024-01-16T07:31:38;12.47;;;3.70;;
5959;SDS011;3006;50.956;7.002;2024-01-16T07:34:07;7.00;;;3.87;;
5959;SDS011;3006;50.956;7.002;2024-01-16T07:36:36;8.70;;;3.33;;
5959;SDS011;3006;50.956;7.002;2024-01-16T07:39:04;7.33;;;3.47;;
5959;SDS011;3006;50.956;7.002;2024-01-16T07:41:32;9.27;;;4.20;;
5959;SDS011;3006;50.956;7.002;2024-01-16T07:44:01;8.30;;;4.23;;
5959;SDS011;3006;50.956;7.002;2024-01-16T07:46:29;13.63;;;3.47;;
5959;SDS011;3006;50.956;7.002;2024-01-16T07:48:59;8.20;;;3.97;;
5959;SDS011;3006;50.956;7.002;2024-01-16T07:51:28;13.00;;;4.10;;
5959;SDS011;3006;50.956;7.002;2024-01-16T07:54:04;12.37;;;3.60;;
5959;SDS011;3006;50.956;7.002;2024-01-16T07:56:33;4.40;;;3.40;;
5959;SDS011;3006;50.956;7.002;2024-01-16T07:59:01;18.63;;;3.50;;
5959;SDS011;3006;50.956;7.002;2024-01-16T08:01:30;10.47;;;3.40;;
5959;SDS011;3006;50.956;7.002;2024-01-16T08:04:00;9.63;;;3.47;;
5959;SDS011;3006;50.956;7.002;2024-01-16T08:06:28;11.53;;;4.73;;
5959;SDS011;3006;50.956;7.002;2024-01-16T08:08:56;9.90;;;3.80;;
5959;SDS011;3006;50.956;7.002;2024-01-16T08:11:25;8.50;;;3.87;;
5959;SDS011;3006;50.956;7.002;2024-01-16T08:13:53;8.90;;;3.83;;
5959;SDS011;3006;50.956;7.002;2024-01-16T08:16:22;10.23;;;3.37;;
5959;SDS011;3006;50.956;7.002;2024-01-16T08:18:50;12.20;;;4.47;;
5959;SDS011;3006;50.956;7.002;2024-01-16T08:21:20;6.43;;;3.43;;
5959;SDS011;3006;50.956;7.002;2024-01-16T08:23:48;9.50;;;3.03;;
5959;SDS011;3006;50.956;7.002;2024-01-16T08:26:16;10.03;;;3.60;;
5959;SDS011;3006;50.956;7.002;2024-01-16T08:28:44;11.37;;;2.87;;
5959;SDS011;3006;50.956;7.002;2024-01-16T08:31:12;8.00;;;3.27;;
5959;SDS011;3006;50.956;7.002;2024-01-16T08:33:44;6.40;;;3.33;;
5959;SDS011;3006;50.956;7.002;2024-01-16T08:36:14;8.93;;;3.30;;
5959;SDS011;3006;50.956;7.002;2024-01-16T08:38:45;8.57;;;2.77;;
5959;SDS011;3006;50.956;7.002;2024-01-16T08:41:14;11.73;;;3.87;;
5959;SDS011;3006;50.956;7.002;2024-01-16T08:43:42;7.10;;;3.40;;
5959;SDS011;3006;50.956;7.002;2024-01-16T08:46:10;6.10;;;3.03;;
5959;SDS011;3006;50.956;7.002;2024-01-16T08:48:38;6.90;;;2.93;;
5959;SDS011;3006;50.956;7.002;2024-01-16T08:51:08;9.43;;;3.07;;
5959;SDS011;3006;50.956;7.002;2024-01-16T08:53:40;8.67;;;3.20;;
5959;SDS011;3006;50.956;7.002;2024-01-16T08:56:11;7.23;;;3.20;;
5959;SDS011;3006;50.956;7.002;2024-01-16T08:58:39;14.27;;;5.60;;
5959;SDS011;3006;50.956;7.002;2024-01-16T09:01:07;7.07;;;3.53;;
5959;SDS011;3006;50.956;7.002;2024-01-16T09:03:36;9.10;;;3.20;;
5959;SDS011;3006;50.956;7.002;2024-01-16T09:06:04;6.67;;;3.53;;
5959;SDS011;3006;50.956;7.002;2024-01-16T09:08:33;7.23;;;2.70;;
5959;SDS011;3006;50.956;7.002;2024-01-16T09:11:05;8.30;;;2.83;;
5959;SDS011;3006;50.956;7.002;2024-01-16T09:13:34;5.43;;;3.03;;
5959;SDS011;3006;50.956;7.002;2024-01-16T09:16:03;7.13;;;2.97;;
5959;SDS011;3006;50.956;7.002;2024-01-16T09:18:31;5.40;;;2.47;;
5959;SDS011;3006;50.956;7.002;2024-01-16T09:21:00;9.40;;;2.50;;
5959;SDS011;3006;50.956;7.002;2024-01-16T09:23:28;10.97;;;2.57;;
5959;SDS011;3006;50.956;7.002;2024-01-16T09:25:57;3.73;;;2.10;;
5959;SDS011;3006;50.956;7.002;2024-01-16T09:28:25;11.17;;;3.00;;
5959;SDS011;3006;50.956;7.002;2024-01-16T09:30:56;6.47;;;2.50;;
5959;SDS011;3006;50.956;7.002;2024-01-16T09:33:24;10.20;;;2.93;;
5959;SDS011;3006;50.956;7.002;2024-01-16T09:35:53;5.63;;;2.87;;
5959;SDS011;3006;50.956;7.002;2024-01-16T09:38:21;7.53;;;3.37;;
5959;SDS011;3006;50.956;7.002;2024-01-16T09:40:49;12.93;;;3.20;;
5959;SDS011;3006;50.956;7.002;2024-01-16T09:43:19;4.13;;;2.57;;
5959;SDS011;3006;50.956;7.002;2024-01-16T09:45:48;11.53;;;3.60;;
5959;SDS011;3006;50.956;7.002;2024-01-16T09:48:20;13.67;;;3.00;;
5959;SDS011;3006;50.956;7.002;2024-01-16T09:50:48;4.73;;;2.73;;
5959;SDS011;3006;50.956;7.002;2024-01-16T09:53:16;10.53;;;2.80;;
5959;SDS011;3006;50.956;7.002;2024-01-16T09:55:45;6.50;;;2.97;;
5959;SDS011;3006;50.956;7.002;2024-01-16T09:58:14;6.53;;;3.43;;
5959;SDS011;3006;50.956;7.002;2024-01-16T10:00:43;10.63;;;4.33;;
5959;SDS011;3006;50.956;7.002;2024-01-16T10:03:12;7.20;;;3.43;;
5959;SDS011;3006;50.956;7.002;2024-01-16T10:05:42;8.47;;;3.13;;
5959;SDS011;3006;50.956;7.002;2024-01-16T10:08:12;10.23;;;3.17;;
5959;SDS011;3006;50.956;7.002;2024-01-16T10:10:40;11.63;;;3.63;;
5959;SDS011;3006;50.956;7.002;2024-01-16T10:13:15;14.50;;;2.97;;
5959;SDS011;3006;50.956;7.002;2024-01-16T10:15:44;9.00;;;3.47;;
5959;SDS011;3006;50.956;7.002;2024-01-16T10:18:23;9.50;;;3.60;;
5959;SDS011;3006;50.956;7.002;2024-01-16T10:20:54;13.43;;;4.43;;
5959;SDS011;3006;50.956;7.002;2024-01-16T10:23:22;9.83;;;3.50;;
5959;SDS011;3006;50.956;7.002;2024-01-16T10:26:07;8.17;;;3.83;;
5959;SDS011;3006;50.956;7.002;2024-01-16T10:28:36;9.40;;;3.70;;
5959;SDS011;3006;50.956;7.002;2024-01-16T10:31:06;8.57;;;2.90;;
5959;SDS011;3006;50.956;7.002;2024-01-16T10:33:36;10.63;;;3.40;;
5959;SDS011;3006;50.956;7.002;2024-01-16T10:36:10;9.63;;;3.20;;
5959;SDS011;3006;50.956;7.002;2024-01-16T10:38:43;17.90;;;3.90;;
5959;SDS011;3006;50.956;7.002;2024-01-16T10:41:12;9.40;;;3.33;;
5959;SDS011;3006;50.956;7.002;2024-01-16T10:43:41;9.20;;;3.27;;
5959;SDS011;3006;50.956;7.002;2024-01-16T10:46:11;7.60;;;2.97;;
5959;SDS011;3006;50.956;7.002;2024-01-16T10:48:41;7.10;;;3.13;;
5959;SDS011;3006;50.956;7.002;2024-01-16T10:51:13;7.53;;;2.83;;
5959;SDS011;3006;50.956;7.002;2024-01-16T10:53:42;9.77;;;3.17;;
5959;SDS011;3006;50.956;7.002;2024-01-16T10:56:13;6.63;;;2.40;;
5959;SDS011;3006;50.956;7.002;2024-01-16T10:58:42;11.13;;;3.53;;
5959;SDS011;3006;50.956;7.002;2024-01-16T11:01:11;7.73;;;2.77;;
5959;SDS011;3006;50.956;7.002;2024-01-16T11:03:45;5.00;;;2.53;;
5959;SDS011;3006;50.956;7.002;2024-01-16T11:06:17;6.83;;;2.67;;
5959;SDS011;3006;50.956;7.002;2024-01-16T11:08:47;10.00;;;2.80;;
5959;SDS011;3006;50.956;7.002;2024-01-16T11:11:16;12.70;;;2.90;;
5959;SDS011;3006;50.956;7.002;2024-01-16T11:13:45;7.07;;;3.20;;
5959;SDS011;3006;50.956;7.002;2024-01-16T11:16:14;11.17;;;3.27;;
5959;SDS011;3006;50.956;7.002;2024-01-16T11:18:43;9.53;;;3.03;;
5959;SDS011;3006;50.956;7.002;2024-01-16T11:21:12;8.67;;;3.57;;
5959;SDS011;3006;50.956;7.002;2024-01-16T11:23:46;6.60;;;3.47;;
5959;SDS011;3006;50.956;7.002;2024-01-16T11:26:24;6.63;;;3.10;;
5959;SDS011;3006;50.956;7.002;2024-01-16T11:28:53;7.33;;;3.50;;
5959;SDS011;3006;50.956;7.002;2024-01-16T11:31:29;11.00;;;5.37;;
5959;SDS011;3006;50.956;7.002;2024-01-16T11:33:59;5.73;;;2.93;;
5959;SDS011;3006;50.956;7.002;2024-01-16T11:36:43;12.10;;;3.30;;
5959;SDS011;3006;50.956;7.002;2024-01-16T11:39:19;7.03;;;3.60;;
5959;SDS011;3006;50.956;7.002;2024-01-16T11:41:52;6.23;;;2.90;;
5959;SDS011;3006;50.956;7.002;2024-01-16T11:44:38;6.80;;;3.20;;
5959;SDS011;3006;50.956;7.002;2024-01-16T11:47:15;13.23;;;3.27;;
5959;SDS011;3006;50.956;7.002;2024-01-16T11:49:45;7.63;;;3.03;;
5959;SDS011;3006;50.956;7.002;2024-01-16T11:52:14;8.17;;;3.20;;
5959;SDS011;3006;50.956;7.002;2024-01-16T11:54:43;8.33;;;3.23;;
5959;SDS011;3006;50.956;7.002;2024-01-16T12:00:15;6.93;;;3.63;;
5959;SDS011;3006;50.956;7.002;2024-01-16T12:02:53;6.43;;;2.90;;
5959;SDS011;3006;50.956;7.002;2024-01-16T12:05:24;8.57;;;3.47;;
5959;SDS011;3006;50.956;7.002;2024-01-16T12:07:53;7.10;;;3.20;;
5959;SDS011;3006;50.956;7.002;2024-01-16T12:10:23;5.27;;;3.07;;
5959;SDS011;3006;50.956;7.002;2024-01-16T12:12:59;8.10;;;2.90;;
5959;SDS011;3006;50.956;7.002;2024-01-16T12:15:31;13.40;;;2.90;;
5959;SDS011;3006;50.956;7.002;2024-01-16T12:17:59;7.17;;;3.37;;
5959;SDS011;3006;50.956;7.002;2024-01-16T12:20:31;10.33;;;3.57;;
5959;SDS011;3006;50.956;7.002;2024-01-16T12:23:00;7.17;;;3.07;;
5959;SDS011;3006;50.956;7.002;2024-01-16T12:25:32;7.57;;;3.33;;
5959;SDS011;3006;50.956;7.002;2024-01-16T12:28:21;6.97;;;3.27;;
5959;SDS011;3006;50.956;7.002;2024-01-16T12:30:58;8.43;;;2.90;;
5959;SDS011;3006;50.956;7.002;2024-01-16T12:33:28;13.83;;;4.20;;
5959;SDS011;3006;50.956;7.002;2024-01-16T12:36:00;7.23;;;3.13;;
5959;SDS011;3006;50.956;7.002;2024-01-16T12:38:32;8.67;;;3.57;;
5959;SDS011;3006;50.956;7.002;2024-01-16T12:41:01;7.17;;;3.60;;
5959;SDS011;3006;50.956;7.002;2024-01-16T12:43:35;5.67;;;3.50;;
5959;SDS011;3006;50.956;7.002;2024-01-16T12:46:05;5.97;;;3.50;;
5959;SDS011;3006;50.956;7.002;2024-01-16T12:48:33;12.90;;;3.47;;
5959;SDS011;3006;50.956;7.002;2024-01-16T12:51:02;7.50;;;3.17;;
5959;SDS011;3006;50.956;7.002;2024-01-16T12:53:33;7.27;;;3.23;;
5959;SDS011;3006;50.956;7.002;2024-01-16T12:56:05;9.97;;;3.57;;
5959;SDS011;3006;50.956;7.002;2024-01-16T12:58:34;6.23;;;3.70;;
5959;SDS011;3006;50.956;7.002;2024-01-16T13:04:05;11.33;;;3.40;;
5959;SDS011;3006;50.956;7.002;2024-01-16T13:06:34;5.97;;;3.10;;
5959;SDS011;3006;50.956;7.002;2024-01-16T13:09:06;8.90;;;3.70;;
5959;SDS011;3006;50.956;7.002;2024-01-16T13:11:46;13.10;;;4.03;;
5959;SDS011;3006;50.956;7.002;2024-01-16T13:14:19;7.57;;;3.63;;
5959;SDS011;3006;50.956;7.002;2024-01-16T13:16:49;8.07;;;4.10;;
5959;SDS011;3006;50.956;7.002;2024-01-16T13:19:17;8.93;;;3.70;;
5959;SDS011;3006;50.956;7.002;2024-01-16T13:21:46;6.23;;;3.60;;
5959;SDS011;3006;50.956;7.002;2024-01-16T13:24:15;7.80;;;4.20;;
5959;SDS011;3006;50.956;7.002;2024-01-16T13:26:49;10.27;;;4.27;;
5959;SDS011;3006;50.956;7.002;2024-01-16T13:29:18;7.90;;;3.70;;
5959;SDS011;3006;50.956;7.002;2024-01-16T13:31:47;8.73;;;4.00;;
5959;SDS011;3006;50.956;7.002;2024-01-16T13:34:15;7.83;;;3.80;;
5959;SDS011;3006;50.956;7.002;2024-01-16T13:36:44;9.83;;;3.83;;
5959;SDS011;3006;50.956;7.002;2024-01-16T13:39:33;9.70;;;3.67;;
5959;SDS011;3006;50.956;7.002;2024-01-16T13:42:06;10.47;;;4.43;;
5959;SDS011;3006;50.956;7.002;2024-01-16T13:44:35;8.30;;;3.70;;
5959;SDS011;3006;50.956;7.002;2024-01-16T13:47:03;10.20;;;4.20;;
5959;SDS011;3006;50.956;7.002;2024-01-16T13:49:38;12.73;;;3.77;;
5959;SDS011;3006;50.956;7.002;2024-01-16T13:52:08;8.80;;;4.37;;
5959;SDS011;3006;50.956;7.002;2024-01-16T13:54:37;8.30;;;4.40;;
5959;SDS011;3006;50.956;7.002;2024-01-16T13:57:07;9.23;;;4.63;;
5959;SDS011;3006;50.956;7.002;2024-01-16T13:59:39;10.77;;;4.30;;
5959;SDS011;3006;50.956;7.002;2024-01-16T14:02:07;14.77;;;4.80;;
5959;SDS011;3006;50.956;7.002;2024-01-16T14:04:36;7.47;;;4.10;;
5959;SDS011;3006;50.956;7.002;2024-01-16T14:07:04;9.73;;;4.20;;
5959;SDS011;3006;50.956;7.002;2024-01-16T14:09:39;6.30;;;4.23;;
5959;SDS011;3006;50.956;7.002;2024-01-16T14:12:12;10.03;;;4.53;;
5959;SDS011;3006;50.956;7.002;2024-01-16T14:14:41;9.80;;;4.70;;
5959;SDS011;3006;50.956;7.002;2024-01-16T14:17:10;9.97;;;5.50;;
5959;SDS011;3006;50.956;7.002;2024-01-16T14:19:38;9.70;;;4.63;;
5959;SDS011;3006;50.956;7.002;2024-01-16T14:22:07;5.97;;;4.00;;
5959;SDS011;3006;50.956;7.002;2024-01-16T14:24:36;12.70;;;4.37;;
5959;SDS011;3006;50.956;7.002;2024-01-16T14:27:04;8.47;;;3.60;;
5959;SDS011;3006;50.956;7.002;2024-01-16T14:29:35;9.77;;;4.13;;
5959;SDS011;3006;50.956;7.002;2024-01-16T14:32:07;9.27;;;4.10;;
5959;SDS011;3006;50.956;7.002;2024-01-16T14:34:37;7.40;;;3.70;;
5959;SDS011;3006;50.956;7.002;2024-01-16T14:37:05;12.87;;;3.87;;
5959;SDS011;3006;50.956;7.002;2024-01-16T14:39:34;9.87;;;3.70;;
5959;SDS011;3006;50.956;7.002;2024-01-16T14:42:03;6.23;;;3.40;;
5959;SDS011;3006;50.956;7.002;2024-01-16T14:44:32;12.50;;;3.70;;
5959;SDS011;3006;50.956;7.002;2024-01-16T14:47:02;6.70;;;3.43;;
5959;SDS011;3006;50.956;7.002;2024-01-16T14:49:30;9.20;;;4.20;;
5959;SDS011;3006;50.956;7.002;2024-01-16T14:52:01;9.13;;;3.20;;
5959;SDS011;3006;50.956;7.002;2024-01-16T14:54:29;7.63;;;3.70;;
5959;SDS011;3006;50.956;7.002;2024-01-16T14:56:58;11.23;;;5.90;;
5959;SDS011;3006;50.956;7.002;2024-01-16T14:59:27;7.40;;;4.23;;
5959;SDS011;3006;50.956;7.002;2024-01-16T15:01:56;6.70;;;3.90;;
5959;SDS011;3006;50.956;7.002;2024-01-16T15:04:24;9.70;;;4.17;;
5959;SDS011;3006;50.956;7.002;2024-01-16T15:06:53;9.80;;;4.17;;
5959;SDS011;3006;50.956;7.002;2024-01-16T15:09:22;12.03;;;4.20;;
5959;SDS011;3006;50.956;7.002;2024-01-16T15:11:50;10.17;;;4.00;;
5959;SDS011;3006;50.956;7.002;2024-01-16T15:14:19;6.73;;;4.17;;
5959;SDS011;3006;50.956;7.002;2024-01-16T15:16:48;9.00;;;4.27;;
5959;SDS011;3006;50.956;7.002;2024-01-16T15:19:19;11.33;;;4.03;;
5959;SDS011;3006;50.956;7.002;2024-01-16T15:21:47;7.47;;;3.97;;
5959;SDS011;3006;50.956;7.002;2024-01-16T15:24:15;7.10;;;3.60;;
5959;SDS011;3006;50.956;7.002;2024-01-16T15:26:48;7.20;;;4.07;;
5959;SDS011;3006;50.956;7.002;2024-01-16T15:29:16;7.47;;;3.30;;